MiSS Donna — WDG2382 — position and weather

sailwx.info

Track history (hours):
 
Tides and Currents Weather Stations Pressure Air Temp Water Temp Dewpoint Dewpoint Depression Visibility Wind Speed Wind Dir Waves Ship Positions

MiSS Donna

Owner: OCEAN MARINE BOAT RENTALS,LLC, MORGAN CITY, LA. More information available from US FCC via Universal Licensing System and Coast Guard Vessel Documentation Center.

Last reported at 2015-Jul-07 02:11 UTC. Time now 2015-Jul-07 17:32 UTC.
Position N 38°05' W 076°16'.

Length 21 m; draft 2.7 m.

Type: Towing. MMSI: 367515090.

Date/timePositionNaut miles runAvg speedWind from/ knotsBaromVisibWave heightAir tempDewpointWater temp
2015-Jul-07 02:11N 38°05' W 076°16'45 5.6
2015-Jul-06 18:07N 38°50' W 076°26'16 6.2
2015-Jul-06 15:33N 39°06' W 076°24'5 5.4
2015-Jul-06 14:33N 39°11' W 076°27'6 5.7
2015-Jul-06 13:33N 39°13' W 076°33'1 1.2
2015-Jul-06 12:29N 39°13' W 076°35'0 0.0
2015-Jul-06 10:32N 39°13' W 076°35'0 0.0
2015-Jul-06 09:11N 39°13' W 076°35'0 0.0
2015-Jul-05 12:24N 39°13' W 076°35'0 0.0
2015-Jul-05 11:33N 39°13' W 076°35'0 0.0
2015-Jul-05 10:33N 39°13' W 076°35'0 0.0
2015-Jul-04 07:29N 39°13' W 076°35'0 0.0
2015-Jul-04 06:28N 39°13' W 076°35'0 0.0
2015-Jul-04 04:07N 39°13' W 076°35'0 0.0
2015-Jul-04 03:33N 39°13' W 076°35'0 0.0
2015-Jul-03 08:08N 39°13' W 076°35'0 0.0
2015-Jul-03 07:33N 39°13' W 076°35'0 0.0
2015-Jul-03 06:20N 39°13' W 076°35'0 0.0
2015-Jul-03 05:32N 39°13' W 076°35'0 0.0
2015-Jul-03 04:33N 39°13' W 076°35'0 0.0
2015-Jul-03 03:25N 39°13' W 076°35'0 0.0
2015-Jul-03 02:32N 39°13' W 076°35'0 0.0
2015-Jul-03 01:22N 39°13' W 076°35'0 0.0
2015-Jul-02 16:33N 39°13' W 076°35'0 0.0
2015-Jul-02 07:33N 39°13' W 076°35'0 0.0
2015-Jul-02 06:26N 39°13' W 076°35'0 0.0
2015-Jul-02 05:33N 39°13' W 076°35'0 0.0
2015-Jul-01 14:33N 39°13' W 076°35'3 2.8
2015-Jul-01 13:33N 39°15' W 076°34'0 0.0
2015-Jul-01 12:33N 39°15' W 076°34'0 0.0
2015-Jul-01 11:33N 39°15' W 076°34'1 0.7
2015-Jul-01 10:33N 39°15' W 076°34'2 0.6
2015-Jul-01 06:21N 39°13' W 076°35'0 0.0
2015-Jul-01 05:26N 39°13' W 076°35'0 0.0
2015-Jul-01 04:20N 39°13' W 076°35'0 0.0
2015-Jul-01 03:30N 39°13' W 076°35'0 0.0
2015-Jul-01 02:30N 39°13' W 076°35'0 0.0
2015-Jul-01 01:30N 39°13' W 076°35'0 0.0
2015-Jun-30 18:33N 39°13' W 076°35'0 0.0
2015-Jun-30 15:31N 39°13' W 076°35'0 0.3
2015-Jun-30 14:33N 39°13' W 076°34'0 0.0
2015-Jun-30 13:33N 39°13' W 076°34'0 0.0
2015-Jun-30 12:33N 39°13' W 076°34'0 0.3
2015-Jun-30 11:26N 39°13' W 076°35'0 0.0
2015-Jun-29 09:25N 39°13' W 076°35'2 0.0
2015-Jun-27 07:32N 39°13' W 076°32'  
Track history (hours):
 
Tides and Currents Weather Stations Pressure Air Temp Water Temp Dewpoint Dewpoint Depression Visibility Wind Speed Wind Dir Waves Ship Positions

MiSS Donna

Owner: OCEAN MARINE BOAT RENTALS,LLC, MORGAN CITY, LA. More information available from US FCC via Universal Licensing System and Coast Guard Vessel Documentation Center.

Last reported at 2015-Jul-07 02:11 UTC. Time now 2015-Jul-07 17:32 UTC.
Position N 38°05' W 076°16'.

Length 21 m; draft 2.7 m.

Type: Towing. MMSI: 367515090.

Date/timePositionNaut miles runAvg speedWind from/ knotsBaromVisibWave heightAir tempDewpointWater temp
2015-Jul-07 02:11N 38°05' W 076°16'45 5.6
2015-Jul-06 18:07N 38°50' W 076°26'16 6.2
2015-Jul-06 15:33N 39°06' W 076°24'5 5.4
2015-Jul-06 14:33N 39°11' W 076°27'6 5.7
2015-Jul-06 13:33N 39°13' W 076°33'1 1.2
2015-Jul-06 12:29N 39°13' W 076°35'0 0.0
2015-Jul-06 10:32N 39°13' W 076°35'0 0.0
2015-Jul-06 09:11N 39°13' W 076°35'0 0.0
2015-Jul-05 12:24N 39°13' W 076°35'0 0.0
2015-Jul-05 11:33N 39°13' W 076°35'0 0.0
2015-Jul-05 10:33N 39°13' W 076°35'0 0.0
2015-Jul-04 07:29N 39°13' W 076°35'0 0.0
2015-Jul-04 06:28N 39°13' W 076°35'0 0.0
2015-Jul-04 04:07N 39°13' W 076°35'0 0.0
2015-Jul-04 03:33N 39°13' W 076°35'0 0.0
2015-Jul-03 08:08N 39°13' W 076°35'0 0.0
2015-Jul-03 07:33N 39°13' W 076°35'0 0.0
2015-Jul-03 06:20N 39°13' W 076°35'0 0.0
2015-Jul-03 05:32N 39°13' W 076°35'0 0.0
2015-Jul-03 04:33N 39°13' W 076°35'0 0.0
2015-Jul-03 03:25N 39°13' W 076°35'0 0.0
2015-Jul-03 02:32N 39°13' W 076°35'0 0.0
2015-Jul-03 01:22N 39°13' W 076°35'0 0.0
2015-Jul-02 16:33N 39°13' W 076°35'0 0.0
2015-Jul-02 07:33N 39°13' W 076°35'0 0.0
2015-Jul-02 06:26N 39°13' W 076°35'0 0.0
2015-Jul-02 05:33N 39°13' W 076°35'0 0.0
2015-Jul-01 14:33N 39°13' W 076°35'3 2.8
2015-Jul-01 13:33N 39°15' W 076°34'0 0.0
2015-Jul-01 12:33N 39°15' W 076°34'0 0.0
2015-Jul-01 11:33N 39°15' W 076°34'1 0.7
2015-Jul-01 10:33N 39°15' W 076°34'2 0.6
2015-Jul-01 06:21N 39°13' W 076°35'0 0.0
2015-Jul-01 05:26N 39°13' W 076°35'0 0.0
2015-Jul-01 04:20N 39°13' W 076°35'0 0.0
2015-Jul-01 03:30N 39°13' W 076°35'0 0.0
2015-Jul-01 02:30N 39°13' W 076°35'0 0.0
2015-Jul-01 01:30N 39°13' W 076°35'0 0.0
2015-Jun-30 18:33N 39°13' W 076°35'0 0.0
2015-Jun-30 15:31N 39°13' W 076°35'0 0.3
2015-Jun-30 14:33N 39°13' W 076°34'0 0.0
2015-Jun-30 13:33N 39°13' W 076°34'0 0.0
2015-Jun-30 12:33N 39°13' W 076°34'0 0.3
2015-Jun-30 11:26N 39°13' W 076°35'0 0.0
2015-Jun-29 09:25N 39°13' W 076°35'2 0.0
2015-Jun-27 07:32N 39°13' W 076°32'  

Dump ship's entire track history